sensor_id;sensor_type;location;lat;lon;timestamp;P1;durP1;ratioP1;P2;durP2;ratioP2
21038;SDS011;10678;51.002;4.786;2024-03-22T00:00:07;63.63;;;31.52;;
21038;SDS011;10678;51.002;4.786;2024-03-22T00:02:36;64.28;;;31.50;;
21038;SDS011;10678;51.002;4.786;2024-03-22T00:05:02;65.40;;;32.10;;
21038;SDS011;10678;51.002;4.786;2024-03-22T00:07:28;62.33;;;30.65;;
21038;SDS011;10678;51.002;4.786;2024-03-22T00:09:54;69.65;;;33.60;;
21038;SDS011;10678;51.002;4.786;2024-03-22T00:12:19;74.75;;;34.15;;
21038;SDS011;10678;51.002;4.786;2024-03-22T00:14:45;61.25;;;30.85;;
21038;SDS011;10678;51.002;4.786;2024-03-22T00:17:11;64.88;;;31.13;;
21038;SDS011;10678;51.002;4.786;2024-03-22T00:19:36;74.35;;;33.10;;
21038;SDS011;10678;51.002;4.786;2024-03-22T00:22:02;68.57;;;32.97;;
21038;SDS011;10678;51.002;4.786;2024-03-22T00:24:27;65.38;;;31.48;;
21038;SDS011;10678;51.002;4.786;2024-03-22T00:26:53;65.43;;;33.20;;
21038;SDS011;10678;51.002;4.786;2024-03-22T00:29:18;62.63;;;31.75;;
21038;SDS011;10678;51.002;4.786;2024-03-22T00:31:44;64.53;;;31.17;;
21038;SDS011;10678;51.002;4.786;2024-03-22T00:34:10;71.00;;;31.27;;
21038;SDS011;10678;51.002;4.786;2024-03-22T00:36:35;62.90;;;31.27;;
21038;SDS011;10678;51.002;4.786;2024-03-22T00:39:01;66.65;;;31.20;;
21038;SDS011;10678;51.002;4.786;2024-03-22T00:41:28;63.97;;;32.20;;
21038;SDS011;10678;51.002;4.786;2024-03-22T00:43:54;60.13;;;31.13;;
21038;SDS011;10678;51.002;4.786;2024-03-22T00:46:19;67.43;;;32.03;;
21038;SDS011;10678;51.002;4.786;2024-03-22T00:48:45;58.80;;;31.48;;
21038;SDS011;10678;51.002;4.786;2024-03-22T00:51:10;62.97;;;31.63;;
21038;SDS011;10678;51.002;4.786;2024-03-22T00:53:36;61.08;;;31.52;;
21038;SDS011;10678;51.002;4.786;2024-03-22T00:56:02;63.55;;;32.33;;
21038;SDS011;10678;51.002;4.786;2024-03-22T00:58:27;61.33;;;31.65;;
21038;SDS011;10678;51.002;4.786;2024-03-22T01:00:53;69.93;;;31.83;;
21038;SDS011;10678;51.002;4.786;2024-03-22T01:03:19;61.15;;;31.15;;
21038;SDS011;10678;51.002;4.786;2024-03-22T01:05:45;58.10;;;31.17;;
21038;SDS011;10678;51.002;4.786;2024-03-22T01:08:11;59.85;;;30.75;;
21038;SDS011;10678;51.002;4.786;2024-03-22T01:10:37;61.13;;;29.92;;
21038;SDS011;10678;51.002;4.786;2024-03-22T01:13:02;62.78;;;31.33;;
21038;SDS011;10678;51.002;4.786;2024-03-22T01:15:28;54.83;;;28.35;;
21038;SDS011;10678;51.002;4.786;2024-03-22T01:17:54;58.25;;;29.80;;
21038;SDS011;10678;51.002;4.786;2024-03-22T01:20:20;62.70;;;30.45;;
21038;SDS011;10678;51.002;4.786;2024-03-22T01:22:45;59.58;;;29.15;;
21038;SDS011;10678;51.002;4.786;2024-03-22T01:25:11;55.15;;;29.27;;
21038;SDS011;10678;51.002;4.786;2024-03-22T01:27:37;54.47;;;27.40;;
21038;SDS011;10678;51.002;4.786;2024-03-22T01:30:03;51.40;;;26.92;;
21038;SDS011;10678;51.002;4.786;2024-03-22T01:32:29;55.42;;;27.73;;
21038;SDS011;10678;51.002;4.786;2024-03-22T01:34:54;49.13;;;25.63;;
21038;SDS011;10678;51.002;4.786;2024-03-22T01:37:20;56.13;;;27.05;;
21038;SDS011;10678;51.002;4.786;2024-03-22T01:39:46;51.20;;;25.90;;
21038;SDS011;10678;51.002;4.786;2024-03-22T01:42:11;44.30;;;25.45;;
21038;SDS011;10678;51.002;4.786;2024-03-22T01:44:37;52.20;;;26.23;;
21038;SDS011;10678;51.002;4.786;2024-03-22T01:47:02;46.35;;;25.30;;
21038;SDS011;10678;51.002;4.786;2024-03-22T01:49:28;50.05;;;25.25;;
21038;SDS011;10678;51.002;4.786;2024-03-22T01:51:55;48.80;;;26.52;;
21038;SDS011;10678;51.002;4.786;2024-03-22T01:54:20;46.55;;;24.70;;
21038;SDS011;10678;51.002;4.786;2024-03-22T01:56:46;50.17;;;25.17;;
21038;SDS011;10678;51.002;4.786;2024-03-22T01:59:12;48.70;;;23.33;;
21038;SDS011;10678;51.002;4.786;2024-03-22T02:01:38;50.05;;;23.40;;
21038;SDS011;10678;51.002;4.786;2024-03-22T02:04:05;40.80;;;22.77;;
21038;SDS011;10678;51.002;4.786;2024-03-22T02:06:31;45.28;;;23.85;;
21038;SDS011;10678;51.002;4.786;2024-03-22T02:08:57;46.45;;;22.67;;
21038;SDS011;10678;51.002;4.786;2024-03-22T02:11:24;42.60;;;23.83;;
21038;SDS011;10678;51.002;4.786;2024-03-22T02:13:52;41.22;;;22.27;;
21038;SDS011;10678;51.002;4.786;2024-03-22T02:16:18;41.55;;;22.67;;
21038;SDS011;10678;51.002;4.786;2024-03-22T02:18:44;40.40;;;21.30;;
21038;SDS011;10678;51.002;4.786;2024-03-22T02:21:09;39.03;;;21.08;;
21038;SDS011;10678;51.002;4.786;2024-03-22T02:23:36;42.50;;;20.90;;
21038;SDS011;10678;51.002;4.786;2024-03-22T02:26:03;37.90;;;20.90;;
21038;SDS011;10678;51.002;4.786;2024-03-22T02:28:30;44.90;;;21.13;;
21038;SDS011;10678;51.002;4.786;2024-03-22T02:30:57;41.65;;;21.50;;
21038;SDS011;10678;51.002;4.786;2024-03-22T02:33:26;39.80;;;20.75;;
21038;SDS011;10678;51.002;4.786;2024-03-22T02:35:52;38.83;;;20.50;;
21038;SDS011;10678;51.002;4.786;2024-03-22T02:38:18;36.25;;;19.20;;
21038;SDS011;10678;51.002;4.786;2024-03-22T02:40:44;37.13;;;19.65;;
21038;SDS011;10678;51.002;4.786;2024-03-22T02:43:10;33.08;;;18.75;;
21038;SDS011;10678;51.002;4.786;2024-03-22T02:45:36;30.98;;;19.13;;
21038;SDS011;10678;51.002;4.786;2024-03-22T02:48:02;37.35;;;19.63;;
21038;SDS011;10678;51.002;4.786;2024-03-22T02:50:28;36.30;;;19.10;;
21038;SDS011;10678;51.002;4.786;2024-03-22T02:52:57;33.45;;;18.75;;
21038;SDS011;10678;51.002;4.786;2024-03-22T02:55:23;32.67;;;18.83;;
21038;SDS011;10678;51.002;4.786;2024-03-22T02:57:48;28.30;;;17.08;;
21038;SDS011;10678;51.002;4.786;2024-03-22T03:00:15;33.53;;;17.42;;
21038;SDS011;10678;51.002;4.786;2024-03-22T03:02:40;32.47;;;18.48;;
21038;SDS011;10678;51.002;4.786;2024-03-22T03:05:06;30.58;;;17.05;;
21038;SDS011;10678;51.002;4.786;2024-03-22T03:07:32;30.67;;;16.67;;
21038;SDS011;10678;51.002;4.786;2024-03-22T03:09:58;42.42;;;18.73;;
21038;SDS011;10678;51.002;4.786;2024-03-22T03:12:23;34.17;;;18.17;;
21038;SDS011;10678;51.002;4.786;2024-03-22T03:14:49;31.02;;;17.35;;
21038;SDS011;10678;51.002;4.786;2024-03-22T03:17:14;30.23;;;17.73;;
21038;SDS011;10678;51.002;4.786;2024-03-22T03:19:40;28.52;;;16.23;;
21038;SDS011;10678;51.002;4.786;2024-03-22T03:22:06;38.17;;;17.40;;
21038;SDS011;10678;51.002;4.786;2024-03-22T03:24:31;33.30;;;17.00;;
21038;SDS011;10678;51.002;4.786;2024-03-22T03:26:57;31.17;;;16.60;;
21038;SDS011;10678;51.002;4.786;2024-03-22T03:29:22;35.28;;;18.05;;
21038;SDS011;10678;51.002;4.786;2024-03-22T03:31:48;31.98;;;17.90;;
21038;SDS011;10678;51.002;4.786;2024-03-22T03:34:14;34.05;;;19.00;;
21038;SDS011;10678;51.002;4.786;2024-03-22T03:36:40;29.52;;;17.77;;
21038;SDS011;10678;51.002;4.786;2024-03-22T03:39:06;32.15;;;18.05;;
21038;SDS011;10678;51.002;4.786;2024-03-22T03:41:31;30.85;;;16.08;;
21038;SDS011;10678;51.002;4.786;2024-03-22T03:43:57;30.38;;;17.02;;
21038;SDS011;10678;51.002;4.786;2024-03-22T03:46:23;29.42;;;16.45;;
21038;SDS011;10678;51.002;4.786;2024-03-22T03:48:48;30.67;;;17.67;;
21038;SDS011;10678;51.002;4.786;2024-03-22T03:51:14;31.83;;;16.60;;
21038;SDS011;10678;51.002;4.786;2024-03-22T03:53:40;31.33;;;17.30;;
21038;SDS011;10678;51.002;4.786;2024-03-22T03:56:05;30.77;;;16.23;;
21038;SDS011;10678;51.002;4.786;2024-03-22T03:58:31;28.13;;;16.85;;
21038;SDS011;10678;51.002;4.786;2024-03-22T04:00:57;31.50;;;16.52;;
21038;SDS011;10678;51.002;4.786;2024-03-22T04:03:23;25.25;;;15.48;;
21038;SDS011;10678;51.002;4.786;2024-03-22T04:05:58;28.90;;;15.30;;
21038;SDS011;10678;51.002;4.786;2024-03-22T04:08:27;29.17;;;15.70;;
21038;SDS011;10678;51.002;4.786;2024-03-22T04:10:56;28.20;;;15.75;;
21038;SDS011;10678;51.002;4.786;2024-03-22T04:13:25;29.88;;;15.65;;
21038;SDS011;10678;51.002;4.786;2024-03-22T04:15:51;24.77;;;15.05;;
21038;SDS011;10678;51.002;4.786;2024-03-22T04:18:17;26.17;;;15.73;;
21038;SDS011;10678;51.002;4.786;2024-03-22T04:20:52;28.70;;;15.05;;
21038;SDS011;10678;51.002;4.786;2024-03-22T04:23:19;27.35;;;14.65;;
21038;SDS011;10678;51.002;4.786;2024-03-22T04:25:54;25.02;;;14.35;;
21038;SDS011;10678;51.002;4.786;2024-03-22T04:28:29;23.42;;;14.05;;
21038;SDS011;10678;51.002;4.786;2024-03-22T04:33:24;23.05;;;14.50;;
21038;SDS011;10678;51.002;4.786;2024-03-22T04:35:50;25.30;;;14.10;;
21038;SDS011;10678;51.002;4.786;2024-03-22T04:38:16;28.70;;;14.32;;
21038;SDS011;10678;51.002;4.786;2024-03-22T04:40:42;29.70;;;13.60;;
21038;SDS011;10678;51.002;4.786;2024-03-22T04:43:08;26.17;;;13.85;;
21038;SDS011;10678;51.002;4.786;2024-03-22T04:45:33;24.73;;;13.70;;
21038;SDS011;10678;51.002;4.786;2024-03-22T04:48:00;24.50;;;13.82;;
21038;SDS011;10678;51.002;4.786;2024-03-22T04:50:27;25.73;;;13.82;;
21038;SDS011;10678;51.002;4.786;2024-03-22T04:52:53;23.30;;;13.65;;
21038;SDS011;10678;51.002;4.786;2024-03-22T04:55:18;23.92;;;13.48;;
21038;SDS011;10678;51.002;4.786;2024-03-22T04:57:44;22.17;;;13.13;;
21038;SDS011;10678;51.002;4.786;2024-03-22T05:00:10;22.90;;;13.35;;
21038;SDS011;10678;51.002;4.786;2024-03-22T05:02:36;23.27;;;12.80;;
21038;SDS011;10678;51.002;4.786;2024-03-22T05:05:01;23.42;;;12.63;;
21038;SDS011;10678;51.002;4.786;2024-03-22T05:07:27;25.33;;;12.77;;
21038;SDS011;10678;51.002;4.786;2024-03-22T05:09:53;20.88;;;13.02;;
21038;SDS011;10678;51.002;4.786;2024-03-22T05:12:18;25.08;;;13.20;;
21038;SDS011;10678;51.002;4.786;2024-03-22T05:14:44;20.83;;;12.60;;
21038;SDS011;10678;51.002;4.786;2024-03-22T05:17:09;21.60;;;12.68;;
21038;SDS011;10678;51.002;4.786;2024-03-22T05:19:35;22.40;;;12.90;;
21038;SDS011;10678;51.002;4.786;2024-03-22T05:22:01;32.42;;;14.15;;
21038;SDS011;10678;51.002;4.786;2024-03-22T05:24:27;27.08;;;12.57;;
21038;SDS011;10678;51.002;4.786;2024-03-22T05:26:53;24.65;;;13.75;;
21038;SDS011;10678;51.002;4.786;2024-03-22T05:29:18;27.63;;;13.85;;
21038;SDS011;10678;51.002;4.786;2024-03-22T05:31:48;23.58;;;11.93;;
21038;SDS011;10678;51.002;4.786;2024-03-22T05:34:16;23.15;;;12.00;;
21038;SDS011;10678;51.002;4.786;2024-03-22T05:36:42;26.42;;;13.95;;
21038;SDS011;10678;51.002;4.786;2024-03-22T05:39:08;21.00;;;12.65;;
21038;SDS011;10678;51.002;4.786;2024-03-22T05:41:35;27.77;;;13.48;;
21038;SDS011;10678;51.002;4.786;2024-03-22T05:44:01;26.35;;;13.70;;
21038;SDS011;10678;51.002;4.786;2024-03-22T05:46:28;25.35;;;13.18;;
21038;SDS011;10678;51.002;4.786;2024-03-22T05:48:54;23.98;;;12.63;;
21038;SDS011;10678;51.002;4.786;2024-03-22T05:51:20;24.55;;;11.93;;
21038;SDS011;10678;51.002;4.786;2024-03-22T05:53:45;24.50;;;12.63;;
21038;SDS011;10678;51.002;4.786;2024-03-22T05:56:11;24.80;;;13.65;;
21038;SDS011;10678;51.002;4.786;2024-03-22T05:58:36;24.13;;;12.70;;
21038;SDS011;10678;51.002;4.786;2024-03-22T06:01:02;21.85;;;12.30;;
21038;SDS011;10678;51.002;4.786;2024-03-22T06:03:28;23.60;;;12.98;;
21038;SDS011;10678;51.002;4.786;2024-03-22T06:05:54;25.63;;;13.40;;
21038;SDS011;10678;51.002;4.786;2024-03-22T06:08:24;23.33;;;12.23;;
21038;SDS011;10678;51.002;4.786;2024-03-22T06:10:50;24.02;;;13.05;;
21038;SDS011;10678;51.002;4.786;2024-03-22T06:13:17;31.20;;;14.13;;
21038;SDS011;10678;51.002;4.786;2024-03-22T06:15:43;23.83;;;13.48;;
21038;SDS011;10678;51.002;4.786;2024-03-22T06:18:11;26.50;;;14.00;;
21038;SDS011;10678;51.002;4.786;2024-03-22T06:20:37;26.85;;;13.10;;
21038;SDS011;10678;51.002;4.786;2024-03-22T06:23:03;23.17;;;13.00;;
21038;SDS011;10678;51.002;4.786;2024-03-22T06:25:29;24.17;;;14.13;;
21038;SDS011;10678;51.002;4.786;2024-03-22T06:27:54;26.23;;;13.30;;
21038;SDS011;10678;51.002;4.786;2024-03-22T06:30:20;22.70;;;12.85;;
21038;SDS011;10678;51.002;4.786;2024-03-22T06:32:45;23.40;;;13.07;;
21038;SDS011;10678;51.002;4.786;2024-03-22T06:35:11;25.50;;;13.95;;
21038;SDS011;10678;51.002;4.786;2024-03-22T06:37:40;23.55;;;13.35;;
21038;SDS011;10678;51.002;4.786;2024-03-22T06:40:06;28.25;;;14.32;;
21038;SDS011;10678;51.002;4.786;2024-03-22T06:42:32;23.70;;;13.23;;
21038;SDS011;10678;51.002;4.786;2024-03-22T06:44:58;26.08;;;14.52;;
21038;SDS011;10678;51.002;4.786;2024-03-22T06:47:24;22.83;;;12.57;;
21038;SDS011;10678;51.002;4.786;2024-03-22T06:49:49;21.30;;;12.27;;
21038;SDS011;10678;51.002;4.786;2024-03-22T06:52:15;21.33;;;11.73;;
21038;SDS011;10678;51.002;4.786;2024-03-22T06:54:41;26.48;;;13.10;;
21038;SDS011;10678;51.002;4.786;2024-03-22T06:57:06;22.10;;;12.95;;
21038;SDS011;10678;51.002;4.786;2024-03-22T06:59:32;20.15;;;12.73;;
21038;SDS011;10678;51.002;4.786;2024-03-22T07:01:58;20.50;;;12.48;;
21038;SDS011;10678;51.002;4.786;2024-03-22T07:04:23;24.42;;;13.40;;
21038;SDS011;10678;51.002;4.786;2024-03-22T07:06:52;22.45;;;13.35;;
21038;SDS011;10678;51.002;4.786;2024-03-22T07:09:18;20.30;;;12.27;;
21038;SDS011;10678;51.002;4.786;2024-03-22T07:11:43;25.65;;;14.23;;
21038;SDS011;10678;51.002;4.786;2024-03-22T07:14:09;25.10;;;13.40;;
21038;SDS011;10678;51.002;4.786;2024-03-22T07:16:35;24.60;;;13.70;;
21038;SDS011;10678;51.002;4.786;2024-03-22T07:19:02;24.90;;;13.20;;
21038;SDS011;10678;51.002;4.786;2024-03-22T07:21:28;24.58;;;12.45;;
21038;SDS011;10678;51.002;4.786;2024-03-22T07:23:54;22.90;;;13.57;;
21038;SDS011;10678;51.002;4.786;2024-03-22T07:26:20;20.92;;;12.68;;
21038;SDS011;10678;51.002;4.786;2024-03-22T07:28:46;22.33;;;12.40;;
21038;SDS011;10678;51.002;4.786;2024-03-22T07:31:11;25.55;;;12.32;;
21038;SDS011;10678;51.002;4.786;2024-03-22T07:33:37;21.40;;;12.70;;
21038;SDS011;10678;51.002;4.786;2024-03-22T07:36:04;23.38;;;12.15;;
21038;SDS011;10678;51.002;4.786;2024-03-22T07:38:30;25.98;;;12.68;;
21038;SDS011;10678;51.002;4.786;2024-03-22T07:40:56;22.50;;;12.05;;
21038;SDS011;10678;51.002;4.786;2024-03-22T07:43:21;20.27;;;11.13;;
21038;SDS011;10678;51.002;4.786;2024-03-22T07:45:47;22.65;;;12.23;;
21038;SDS011;10678;51.002;4.786;2024-03-22T07:48:13;20.73;;;12.60;;
21038;SDS011;10678;51.002;4.786;2024-03-22T07:50:38;21.20;;;11.45;;
21038;SDS011;10678;51.002;4.786;2024-03-22T07:53:04;20.00;;;11.73;;
21038;SDS011;10678;51.002;4.786;2024-03-22T07:55:30;21.52;;;10.07;;
21038;SDS011;10678;51.002;4.786;2024-03-22T07:57:55;20.25;;;11.05;;
21038;SDS011;10678;51.002;4.786;2024-03-22T08:00:22;17.80;;;9.43;;
21038;SDS011;10678;51.002;4.786;2024-03-22T08:02:50;16.98;;;10.45;;
21038;SDS011;10678;51.002;4.786;2024-03-22T08:05:16;19.00;;;10.48;;
21038;SDS011;10678;51.002;4.786;2024-03-22T08:07:42;22.88;;;10.32;;
21038;SDS011;10678;51.002;4.786;2024-03-22T08:10:08;18.67;;;9.88;;
21038;SDS011;10678;51.002;4.786;2024-03-22T08:12:34;20.48;;;9.93;;
21038;SDS011;10678;51.002;4.786;2024-03-22T08:15:00;21.92;;;10.23;;
21038;SDS011;10678;51.002;4.786;2024-03-22T08:17:27;14.75;;;8.32;;
21038;SDS011;10678;51.002;4.786;2024-03-22T08:19:53;17.02;;;9.15;;
21038;SDS011;10678;51.002;4.786;2024-03-22T08:22:19;17.90;;;9.60;;
21038;SDS011;10678;51.002;4.786;2024-03-22T08:24:44;16.05;;;9.00;;
21038;SDS011;10678;51.002;4.786;2024-03-22T08:27:10;17.55;;;8.77;;
21038;SDS011;10678;51.002;4.786;2024-03-22T08:29:37;16.02;;;8.32;;
21038;SDS011;10678;51.002;4.786;2024-03-22T08:32:03;15.07;;;8.80;;
21038;SDS011;10678;51.002;4.786;2024-03-22T08:34:29;18.65;;;8.75;;
21038;SDS011;10678;51.002;4.786;2024-03-22T08:36:57;15.15;;;8.25;;
21038;SDS011;10678;51.002;4.786;2024-03-22T08:39:23;15.85;;;8.77;;
21038;SDS011;10678;51.002;4.786;2024-03-22T08:41:49;15.18;;;9.20;;
21038;SDS011;10678;51.002;4.786;2024-03-22T08:44:15;18.38;;;9.68;;
21038;SDS011;10678;51.002;4.786;2024-03-22T08:46:40;16.92;;;9.52;;
21038;SDS011;10678;51.002;4.786;2024-03-22T08:49:06;19.23;;;9.02;;
21038;SDS011;10678;51.002;4.786;2024-03-22T08:51:31;15.18;;;9.05;;
21038;SDS011;10678;51.002;4.786;2024-03-22T08:53:57;14.02;;;8.30;;
21038;SDS011;10678;51.002;4.786;2024-03-22T08:56:23;14.32;;;7.97;;
21038;SDS011;10678;51.002;4.786;2024-03-22T08:58:48;16.33;;;8.27;;
21038;SDS011;10678;51.002;4.786;2024-03-22T09:01:15;11.65;;;7.20;;
21038;SDS011;10678;51.002;4.786;2024-03-22T09:03:40;14.40;;;7.28;;
21038;SDS011;10678;51.002;4.786;2024-03-22T09:06:08;13.82;;;7.50;;
21038;SDS011;10678;51.002;4.786;2024-03-22T09:08:33;13.43;;;6.32;;
21038;SDS011;10678;51.002;4.786;2024-03-22T09:10:59;13.18;;;7.05;;
21038;SDS011;10678;51.002;4.786;2024-03-22T09:13:24;17.38;;;7.63;;
21038;SDS011;10678;51.002;4.786;2024-03-22T09:15:56;13.57;;;6.80;;
21038;SDS011;10678;51.002;4.786;2024-03-22T09:18:25;14.45;;;7.40;;
21038;SDS011;10678;51.002;4.786;2024-03-22T09:20:52;13.60;;;6.75;;
21038;SDS011;10678;51.002;4.786;2024-03-22T09:23:18;19.23;;;7.18;;
21038;SDS011;10678;51.002;4.786;2024-03-22T09:25:44;13.43;;;6.88;;
21038;SDS011;10678;51.002;4.786;2024-03-22T09:28:13;11.75;;;7.07;;
21038;SDS011;10678;51.002;4.786;2024-03-22T09:30:42;14.48;;;8.20;;
21038;SDS011;10678;51.002;4.786;2024-03-22T09:33:08;15.98;;;7.72;;
21038;SDS011;10678;51.002;4.786;2024-03-22T09:35:34;15.48;;;8.48;;
21038;SDS011;10678;51.002;4.786;2024-03-22T09:38:00;15.57;;;9.13;;
21038;SDS011;10678;51.002;4.786;2024-03-22T09:40:26;18.40;;;9.57;;
21038;SDS011;10678;51.002;4.786;2024-03-22T09:42:52;19.35;;;9.02;;
21038;SDS011;10678;51.002;4.786;2024-03-22T09:45:18;16.63;;;9.90;;
21038;SDS011;10678;51.002;4.786;2024-03-22T09:47:45;16.35;;;9.40;;
21038;SDS011;10678;51.002;4.786;2024-03-22T09:50:13;18.83;;;10.05;;
21038;SDS011;10678;51.002;4.786;2024-03-22T09:52:39;17.98;;;10.48;;
21038;SDS011;10678;51.002;4.786;2024-03-22T09:55:07;21.85;;;11.73;;
21038;SDS011;10678;51.002;4.786;2024-03-22T09:57:37;25.98;;;11.65;;
21038;SDS011;10678;51.002;4.786;2024-03-22T10:00:07;24.20;;;12.63;;
21038;SDS011;10678;51.002;4.786;2024-03-22T10:02:34;18.77;;;11.23;;
21038;SDS011;10678;51.002;4.786;2024-03-22T10:05:00;20.27;;;11.55;;
21038;SDS011;10678;51.002;4.786;2024-03-22T10:07:27;20.33;;;11.90;;
21038;SDS011;10678;51.002;4.786;2024-03-22T10:09:57;21.05;;;12.57;;
21038;SDS011;10678;51.002;4.786;2024-03-22T10:12:23;21.02;;;11.65;;
21038;SDS011;10678;51.002;4.786;2024-03-22T10:14:50;18.50;;;11.43;;
21038;SDS011;10678;51.002;4.786;2024-03-22T10:17:19;18.77;;;10.93;;
21038;SDS011;10678;51.002;4.786;2024-03-22T10:19:45;20.08;;;11.63;;
21038;SDS011;10678;51.002;4.786;2024-03-22T10:22:15;19.92;;;11.73;;
21038;SDS011;10678;51.002;4.786;2024-03-22T10:24:44;17.38;;;10.43;;
21038;SDS011;10678;51.002;4.786;2024-03-22T10:27:10;22.20;;;12.88;;
21038;SDS011;10678;51.002;4.786;2024-03-22T10:29:36;19.30;;;11.00;;
21038;SDS011;10678;51.002;4.786;2024-03-22T10:32:02;19.38;;;12.00;;
21038;SDS011;10678;51.002;4.786;2024-03-22T10:34:28;19.83;;;11.88;;
21038;SDS011;10678;51.002;4.786;2024-03-22T10:36:57;18.13;;;10.50;;
21038;SDS011;10678;51.002;4.786;2024-03-22T10:39:25;19.40;;;11.10;;
21038;SDS011;10678;51.002;4.786;2024-03-22T10:41:51;19.92;;;11.40;;
21038;SDS011;10678;51.002;4.786;2024-03-22T10:44:18;17.45;;;9.77;;
21038;SDS011;10678;51.002;4.786;2024-03-22T10:46:44;19.25;;;10.20;;
21038;SDS011;10678;51.002;4.786;2024-03-22T10:49:19;23.17;;;11.30;;
21038;SDS011;10678;51.002;4.786;2024-03-22T10:51:58;16.25;;;9.93;;
21038;SDS011;10678;51.002;4.786;2024-03-22T10:54:45;20.73;;;11.77;;
21038;SDS011;10678;51.002;4.786;2024-03-22T10:57:12;21.88;;;12.10;;
21038;SDS011;10678;51.002;4.786;2024-03-22T10:59:43;21.40;;;11.75;;
21038;SDS011;10678;51.002;4.786;2024-03-22T11:02:10;20.55;;;11.57;;
21038;SDS011;10678;51.002;4.786;2024-03-22T11:04:36;20.00;;;11.20;;
21038;SDS011;10678;51.002;4.786;2024-03-22T11:07:02;18.20;;;11.40;;
21038;SDS011;10678;51.002;4.786;2024-03-22T11:09:28;17.83;;;11.15;;
21038;SDS011;10678;51.002;4.786;2024-03-22T11:11:55;18.67;;;11.65;;
21038;SDS011;10678;51.002;4.786;2024-03-22T11:14:25;20.80;;;12.05;;
21038;SDS011;10678;51.002;4.786;2024-03-22T11:16:51;16.88;;;10.77;;
21038;SDS011;10678;51.002;4.786;2024-03-22T11:19:18;20.05;;;11.32;;
21038;SDS011;10678;51.002;4.786;2024-03-22T11:21:43;20.10;;;11.18;;
21038;SDS011;10678;51.002;4.786;2024-03-22T11:24:09;19.38;;;12.38;;
21038;SDS011;10678;51.002;4.786;2024-03-22T11:26:36;18.90;;;11.23;;
21038;SDS011;10678;51.002;4.786;2024-03-22T11:29:02;16.65;;;10.40;;
21038;SDS011;10678;51.002;4.786;2024-03-22T11:31:28;23.73;;;11.82;;
21038;SDS011;10678;51.002;4.786;2024-03-22T11:33:54;21.77;;;11.50;;
21038;SDS011;10678;51.002;4.786;2024-03-22T11:36:20;17.73;;;10.68;;
21038;SDS011;10678;51.002;4.786;2024-03-22T11:38:45;21.85;;;12.02;;
21038;SDS011;10678;51.002;4.786;2024-03-22T11:41:14;20.08;;;11.73;;
21038;SDS011;10678;51.002;4.786;2024-03-22T11:43:44;20.15;;;12.35;;
21038;SDS011;10678;51.002;4.786;2024-03-22T11:46:12;18.85;;;11.43;;
21038;SDS011;10678;51.002;4.786;2024-03-22T11:48:40;20.75;;;12.75;;
21038;SDS011;10678;51.002;4.786;2024-03-22T11:51:07;20.35;;;12.00;;
21038;SDS011;10678;51.002;4.786;2024-03-22T11:53:34;20.52;;;11.13;;
21038;SDS011;10678;51.002;4.786;2024-03-22T11:56:00;18.15;;;11.00;;
21038;SDS011;10678;51.002;4.786;2024-03-22T11:58:28;22.35;;;12.30;;
21038;SDS011;10678;51.002;4.786;2024-03-22T12:00:55;19.98;;;11.38;;
21038;SDS011;10678;51.002;4.786;2024-03-22T12:03:21;23.92;;;11.85;;
21038;SDS011;10678;51.002;4.786;2024-03-22T12:05:47;27.45;;;11.65;;
21038;SDS011;10678;51.002;4.786;2024-03-22T12:08:15;20.98;;;12.25;;
21038;SDS011;10678;51.002;4.786;2024-03-22T12:10:44;18.90;;;12.07;;
21038;SDS011;10678;51.002;4.786;2024-03-22T12:13:09;18.45;;;10.82;;
21038;SDS011;10678;51.002;4.786;2024-03-22T12:15:35;19.92;;;10.27;;
21038;SDS011;10678;51.002;4.786;2024-03-22T12:18:01;13.60;;;8.50;;
21038;SDS011;10678;51.002;4.786;2024-03-22T12:20:28;16.85;;;8.35;;
21038;SDS011;10678;51.002;4.786;2024-03-22T12:22:54;18.52;;;8.57;;
21038;SDS011;10678;51.002;4.786;2024-03-22T12:25:20;18.33;;;8.63;;
21038;SDS011;10678;51.002;4.786;2024-03-22T12:27:46;16.75;;;8.40;;
21038;SDS011;10678;51.002;4.786;2024-03-22T12:30:12;14.70;;;8.55;;
21038;SDS011;10678;51.002;4.786;2024-03-22T12:32:38;16.70;;;8.07;;
21038;SDS011;10678;51.002;4.786;2024-03-22T12:35:04;16.77;;;8.32;;
21038;SDS011;10678;51.002;4.786;2024-03-22T12:37:30;13.73;;;7.28;;
21038;SDS011;10678;51.002;4.786;2024-03-22T12:39:56;14.48;;;7.85;;
21038;SDS011;10678;51.002;4.786;2024-03-22T12:42:21;12.50;;;7.15;;
21038;SDS011;10678;51.002;4.786;2024-03-22T12:44:48;13.50;;;7.28;;
21038;SDS011;10678;51.002;4.786;2024-03-22T12:47:13;12.63;;;7.63;;
21038;SDS011;10678;51.002;4.786;2024-03-22T12:49:39;18.50;;;8.02;;
21038;SDS011;10678;51.002;4.786;2024-03-22T12:52:05;14.65;;;7.15;;
21038;SDS011;10678;51.002;4.786;2024-03-22T12:54:31;13.45;;;6.72;;
21038;SDS011;10678;51.002;4.786;2024-03-22T12:56:57;15.65;;;7.38;;
21038;SDS011;10678;51.002;4.786;2024-03-22T12:59:23;15.02;;;7.13;;
21038;SDS011;10678;51.002;4.786;2024-03-22T13:01:48;13.10;;;6.40;;
21038;SDS011;10678;51.002;4.786;2024-03-22T13:04:14;14.77;;;6.95;;
21038;SDS011;10678;51.002;4.786;2024-03-22T13:06:40;14.90;;;8.50;;
21038;SDS011;10678;51.002;4.786;2024-03-22T13:09:05;16.52;;;7.28;;
21038;SDS011;10678;51.002;4.786;2024-03-22T13:11:34;16.83;;;7.15;;
21038;SDS011;10678;51.002;4.786;2024-03-22T13:14:00;13.75;;;7.32;;
21038;SDS011;10678;51.002;4.786;2024-03-22T13:16:26;12.77;;;7.38;;
21038;SDS011;10678;51.002;4.786;2024-03-22T13:18:52;17.38;;;7.20;;
21038;SDS011;10678;51.002;4.786;2024-03-22T13:21:18;13.60;;;6.88;;
21038;SDS011;10678;51.002;4.786;2024-03-22T13:23:44;19.45;;;8.52;;
21038;SDS011;10678;51.002;4.786;2024-03-22T13:26:10;17.95;;;8.07;;
21038;SDS011;10678;51.002;4.786;2024-03-22T13:28:36;18.02;;;6.90;;
21038;SDS011;10678;51.002;4.786;2024-03-22T13:31:04;18.45;;;7.75;;
21038;SDS011;10678;51.002;4.786;2024-03-22T13:33:34;11.98;;;6.60;;
21038;SDS011;10678;51.002;4.786;2024-03-22T13:36:00;15.40;;;6.82;;
21038;SDS011;10678;51.002;4.786;2024-03-22T13:38:26;15.52;;;6.70;;
21038;SDS011;10678;51.002;4.786;2024-03-22T13:43:21;11.88;;;6.10;;
21038;SDS011;10678;51.002;4.786;2024-03-22T13:45:48;16.50;;;6.82;;
21038;SDS011;10678;51.002;4.786;2024-03-22T13:48:19;13.38;;;6.30;;
21038;SDS011;10678;51.002;4.786;2024-03-22T13:50:49;13.88;;;5.53;;
21038;SDS011;10678;51.002;4.786;2024-03-22T13:53:18;12.00;;;6.40;;
21038;SDS011;10678;51.002;4.786;2024-03-22T13:55:44;14.95;;;6.03;;
21038;SDS011;10678;51.002;4.786;2024-03-22T13:58:11;17.45;;;5.78;;
21038;SDS011;10678;51.002;4.786;2024-03-22T14:00:37;13.57;;;6.30;;
21038;SDS011;10678;51.002;4.786;2024-03-22T14:03:03;12.52;;;6.05;;
21038;SDS011;10678;51.002;4.786;2024-03-22T14:05:29;16.48;;;7.07;;
21038;SDS011;10678;51.002;4.786;2024-03-22T14:07:56;19.83;;;6.13;;
21038;SDS011;10678;51.002;4.786;2024-03-22T14:10:22;14.45;;;6.47;;
21038;SDS011;10678;51.002;4.786;2024-03-22T14:12:50;18.17;;;6.80;;
21038;SDS011;10678;51.002;4.786;2024-03-22T14:15:16;11.73;;;6.72;;
21038;SDS011;10678;51.002;4.786;2024-03-22T14:17:41;12.80;;;6.20;;
21038;SDS011;10678;51.002;4.786;2024-03-22T14:20:07;14.15;;;6.10;;
21038;SDS011;10678;51.002;4.786;2024-03-22T14:22:39;15.07;;;6.25;;
21038;SDS011;10678;51.002;4.786;2024-03-22T14:25:06;15.10;;;6.93;;